Flight Track Log - Related Links

Times and Time Zones

All times are in EDT time to prevent confusion due to time zone crossing. See the EGF2733 flight status page for this flight to view local times or setup timezone preferences in your user account.

Time Position Orientation Groundspeed Altitude Reporting Facility
EDT Latitude Longitude Course Direction KTS MPH feet Rate Location/Type
Thu 09:37:15 PM 32.8691 -97.0320 137° Southeast  Level FlightAware Approximate
Thu 09:38:13 PM 32.8675 -97.0303 180° South 167 192 1,800  Level FAA TRACON SMA TRACON (SMA)
Thu 09:38:57 PM 32.8336 -97.0303 180° South 179 206 3,400 2,074 Climbing FAA TRACON SMA TRACON (SMA)
Thu 09:39:34 PM 32.7964 -97.0300 180° South 220 253 4,600 1,948 Climbing FAA TRACON SMA TRACON (SMA)
Thu 09:40:14 PM 32.7475 -97.0303 156° South 256 295 5,900 1,829 Climbing FAA TRACON SMA TRACON (SMA)
Thu 09:40:56 PM 32.7022 -97.0061 108° East 286 329 7,100 1,704 Climbing FAA TRACON SMA TRACON (SMA)
Thu 09:41:35 PM 32.6869 -96.9492 88° East 297 342 8,200 1,823 Climbing FAA TRACON SMA TRACON (SMA)
Thu 09:42:15 PM 32.6889 -96.8806 84° East 302 348 9,500 1,575 Climbing FAA TRACON SMA TRACON (SMA)
Thu 09:42:55 PM 32.6950 -96.8094 81° East 314 361 10,300 825 Climbing FAA TRACON SMA TRACON (SMA)
Thu 09:43:35 PM 32.7042 -96.7411 80° East 341 392 10,600 600 Climbing FAA TRACON SMA TRACON (SMA)
Thu 09:44:15 PM 32.7167 -96.6594 81° East 366 421 11,100 825 Climbing FAA TRACON SMA TRACON (SMA)
Thu 09:44:55 PM 32.7281 -96.5744 80° East 379 436 11,700 1,125 Climbing FAA TRACON SMA TRACON (SMA)
Thu 09:45:35 PM 32.7392 -96.4992 80° East 377 434 12,600 1,500 Climbing FAA TRACON SMA TRACON (SMA)
Thu 09:46:23 PM 32.7544 -96.3958 82° East 374 430 13,900 1,650 Climbing FAA TRACON SMA TRACON (SMA)
Thu 09:46:55 PM 32.7625 -96.3306 97° East 372 428 14,800 1,521 Climbing FAA TRACON SMA TRACON (SMA)
Thu 09:47:34 PM 32.7544 -96.2561 101° East 372 428 15,700 1,500 Climbing FAA TRACON SMA TRACON (SMA)
Thu 09:48:15 PM 32.7403 -96.1731 100° East 372 428 16,800 1,537 Climbing FAA TRACON SMA TRACON (SMA)
Thu 09:48:56 PM 32.7281 -96.0894 99° East 372 428 17,800 1,671 Climbing FAA TRACON SMA TRACON (SMA)
Thu 09:49:34 PM 32.7183 -96.0139 100° East 374 430 19,000 1,725 Climbing FAA TRACON SMA TRACON (SMA)
Thu 09:50:16 PM 32.7058 -95.9289 105° East 378 435 20,100 1,486 Climbing FAA TRACON SMA TRACON (SMA)
Thu 09:51:23 PM 32.6769 -95.8042 101° East 375 432 21,700 1,465 Climbing Fort Worth Center
Thu 09:52:23 PM 32.6542 -95.6639 84° East 380 437 23,200 1,500 Climbing Fort Worth Center
Thu 09:53:23 PM 32.6650 -95.5356 84° East 386 444 24,700 1,550 Climbing Fort Worth Center
Thu 09:54:23 PM 32.6756 -95.4119 83° East 381 438 26,300 1,400 Climbing Fort Worth Center
Thu 09:55:23 PM 32.6864 -95.3006 90° East 387 445 27,500 1,450 Climbing Fort Worth Center
Thu 09:56:23 PM 32.6861 -95.1647 86° East 387 445 29,200 1,450 Climbing Fort Worth Center
Thu 09:57:23 PM 32.6942 -95.0411 85° East 382 440 30,400 1,150 Climbing Fort Worth Center
Thu 09:58:23 PM 32.7042 -94.9150 88° East 382 440 31,500 1,100 Climbing Fort Worth Center
Thu 09:59:23 PM 32.7081 -94.7889 110° East 382 440 32,600 1,050 Climbing Fort Worth Center
Thu 10:00:23 PM 32.6697 -94.6617 114° Southeast 394 453 33,600 1,000 Climbing Fort Worth Center
Thu 10:01:23 PM 32.6231 -94.5375 114° Southeast 394 453 34,600 1,000 Climbing Fort Worth Center
Thu 10:02:23 PM 32.5808 -94.4253 113° Southeast 411 473 35,600 850 Climbing Fort Worth Center
Thu 10:03:23 PM 32.5361 -94.3011 114° Southeast 416 479 36,300 600 Climbing Fort Worth Center
Thu 10:04:23 PM 32.4892 -94.1772 115° Southeast 416 479 36,800 350 Climbing Fort Worth Center
Thu 10:05:23 PM 32.4378 -94.0486 113° Southeast 416 479 37,000 100 Climbing Fort Worth Center
Thu 10:06:23 PM 32.3881 -93.9103 114° Southeast 428 493 37,000  Level Fort Worth Center
Thu 10:07:23 PM 32.3339 -93.7697 115° Southeast 448 516 37,000  Level Fort Worth Center
Thu 10:09:48 PM 32.2000 -93.4239 115° Southeast 491 565 37,000  Level Houston Center
Thu 10:10:48 PM 32.1414 -93.2733 115° Southeast 491 565 37,000  Level Houston Center
Thu 10:11:47 PM 32.0847 -93.1281 115° Southeast 491 565 37,000  Level Houston Center
Thu 10:12:47 PM 32.0258 -92.9778 115° Southeast 491 565 37,000  Level Houston Center
Thu 10:13:47 PM 31.9667 -92.8303 115° Southeast 491 565 37,000  Level Houston Center
Thu 10:14:47 PM 31.9075 -92.6806 115° Southeast 491 565 37,000  Level Houston Center
Thu 10:15:47 PM 31.8500 -92.5333 114° Southeast 491 565 37,000  Level Houston Center
Thu 10:16:47 PM 31.7967 -92.3936 116° Southeast 483 556 37,000  Level Houston Center
Thu 10:17:47 PM 31.7369 -92.2492 115° Southeast 483 556 37,000  Level Houston Center
Thu 10:18:48 PM 31.6789 -92.1025 115° Southeast 488 562 37,000  Level Houston Center
Thu 10:19:47 PM 31.6211 -91.9561 115° Southeast 488 562 37,000  Level Houston Center
Thu 10:20:47 PM 31.5628 -91.8119 116° Southeast 488 562 37,000  Level Houston Center
Thu 10:21:48 PM 31.5044 -91.6708 116° Southeast 488 562 37,000  Level Houston Center
Thu 10:22:48 PM 31.4397 -91.5150 116° Southeast 488 562 37,000  Level Houston Center
Thu 10:23:48 PM 31.3811 -91.3717 115° Southeast 488 562 37,000  Level Houston Center
Thu 10:24:47 PM 31.3222 -91.2261 117° Southeast 488 562 37,000  Level Houston Center
Thu 10:25:47 PM 31.2675 -91.1025 116° Southeast 483 556 37,000  Level Houston Center
Thu 10:26:47 PM 31.2106 -90.9644 116° Southeast 478 550 37,000  Level Houston Center
Thu 10:27:48 PM 31.1514 -90.8242 116° Southeast 478 550 37,000 -200 Level Houston Center
Thu 10:28:47 PM 31.0942 -90.6864 116° Southeast 473 544 36,600 -1,664 Descending Houston Center
Thu 10:29:47 PM 31.0347 -90.5442 116° Southeast 478 550 33,700 -2,900 Descending Houston Center
Thu 10:30:47 PM 30.9792 -90.4092 116° Southeast 472 543 30,800 -2,950 Descending Houston Center
Thu 10:31:47 PM 30.9236 -90.2742 117° Southeast 467 537 27,800 -2,950 Descending Houston Center
Thu 10:32:47 PM 30.8681 -90.1467 116° Southeast 453 521 24,900 -2,926 Descending Houston Center
Thu 10:33:48 PM 30.8164 -90.0242 116° Southeast 432 497 21,900 -2,975 Descending Houston Center
Thu 10:34:48 PM 30.7669 -89.9042 117° Southeast 420 483 18,900 -3,126 Descending Houston Center
Thu 10:35:47 PM 30.7175 -89.7892 114° Southeast 408 470 15,700 -3,429 Descending Houston Center
Thu 10:36:47 PM 30.6719 -89.6692 113° Southeast 401 461 12,100 -2,600 Descending Houston Center
Thu 10:37:47 PM 30.6328 -89.5614 113° Southeast 390 449 10,500 -1,240 Descending Houston Center
Thu 10:38:48 PM 30.6000 -89.4706 112° Southeast 348 400 9,600 -1,450 Descending Houston Center
Thu 10:39:47 PM 30.5694 -89.3844 114° Southeast 306 352 7,600 -2,050 Descending Houston Center
Thu 10:40:48 PM 30.5386 -89.3031 113° Southeast 287 330 5,500 -2,033 Descending Houston Center
Thu 10:41:48 PM 30.5103 -89.2242 113° Southeast 273 314 3,500 -2,000 Descending Houston Center

Login

Don't have an account? Register now (free) for customized features, flight alerts, and more!